createdAt,value
2017-11-30T00:02:25.900Z,93.30
2017-11-30T00:04:54.171Z,93.30
2017-11-30T00:07:22.417Z,93.60
2017-11-30T00:09:50.651Z,92.90
2017-11-30T00:12:19.679Z,87.60
2017-11-30T00:14:47.926Z,87.60
2017-11-30T00:17:16.363Z,89.60
2017-11-30T00:19:44.836Z,90.80
2017-11-30T00:22:13.087Z,90.80
2017-11-30T00:24:41.323Z,89.70
2017-11-30T00:27:10.360Z,89.90
2017-11-30T00:29:38.600Z,89.80
2017-11-30T00:32:07.611Z,90.90
2017-11-30T00:34:35.879Z,90.90
2017-11-30T00:37:04.125Z,91.10
2017-11-30T00:39:32.363Z,91.60
2017-11-30T00:42:01.155Z,92.10
2017-11-30T00:44:33.896Z,92.10
2017-11-30T00:47:02.935Z,86.10
2017-11-30T00:49:31.198Z,86.00
2017-11-30T00:51:59.447Z,85.00
2017-11-30T00:54:27.724Z,86.10
2017-11-30T00:56:55.967Z,87.10
2017-11-30T00:59:24.379Z,87.40
2017-11-30T01:01:53.499Z,86.90
2017-11-30T01:04:21.751Z,86.80
2017-11-30T01:06:50.768Z,87.20
2017-11-30T01:09:19.041Z,87.10
2017-11-30T01:11:47.292Z,86.80
2017-11-30T01:14:16.462Z,89.40
2017-11-30T01:16:44.755Z,90.60
2017-11-30T01:19:12.989Z,90.20
2017-11-30T01:21:41.291Z,90.10
2017-11-30T01:24:09.628Z,89.30
2017-11-30T01:26:37.895Z,89.10
2017-11-30T01:29:06.153Z,87.10
2017-11-30T01:31:35.202Z,87.90
2017-11-30T01:34:03.445Z,87.80
2017-11-30T01:36:31.695Z,88.90
2017-11-30T01:38:59.967Z,87.10
2017-11-30T01:41:28.979Z,86.50
2017-11-30T01:43:57.999Z,87.40
2017-11-30T01:46:27.003Z,87.40
2017-11-30T01:48:55.251Z,89.80
2017-11-30T01:51:23.504Z,89.80
2017-11-30T01:53:51.788Z,89.60
2017-11-30T01:56:20.797Z,90.10
2017-11-30T01:58:49.804Z,90.40
2017-11-30T02:01:18.493Z,90.30
2017-11-30T02:03:46.739Z,90.70
2017-11-30T02:06:14.996Z,91.70
2017-11-30T02:08:43.643Z,91.20
2017-11-30T02:11:11.887Z,91.00
2017-11-30T02:13:40.140Z,91.40
2017-11-30T02:16:08.416Z,91.70
2017-11-30T02:18:36.666Z,92.20
2017-11-30T02:21:04.907Z,91.60
2017-11-30T02:23:33.184Z,91.90
2017-11-30T02:26:01.611Z,92.20
2017-11-30T02:28:29.864Z,92.40
2017-11-30T02:30:58.444Z,92.40
2017-11-30T02:33:26.694Z,92.90
2017-11-30T02:35:55.120Z,92.60
2017-11-30T02:38:23.395Z,92.20
2017-11-30T02:40:51.641Z,92.20
2017-11-30T02:43:19.891Z,91.80
2017-11-30T02:45:48.156Z,91.90
2017-11-30T02:48:16.406Z,92.10
2017-11-30T02:50:44.659Z,92.10
2017-11-30T02:53:13.016Z,92.10
2017-11-30T02:55:41.263Z,91.90
2017-11-30T02:58:10.275Z,92.00
2017-11-30T03:00:39.308Z,91.60
2017-11-30T03:03:07.950Z,91.60
2017-11-30T03:05:36.955Z,92.00
2017-11-30T03:08:05.235Z,92.00
2017-11-30T03:10:33.655Z,91.80
2017-11-30T03:13:01.894Z,91.80
2017-11-30T03:15:30.504Z,91.50
2017-11-30T03:17:58.752Z,91.20
2017-11-30T03:20:26.998Z,91.40
2017-11-30T03:22:56.031Z,91.30
2017-11-30T03:25:24.283Z,91.30
2017-11-30T03:27:53.300Z,92.00
2017-11-30T03:30:21.578Z,91.90
2017-11-30T03:32:49.822Z,91.50
2017-11-30T03:35:18.841Z,91.70
2017-11-30T03:37:47.303Z,91.70
2017-11-30T03:40:15.547Z,91.60
2017-11-30T03:42:43.795Z,92.20
2017-11-30T03:45:12.067Z,92.30
2017-11-30T03:47:40.311Z,92.40
2017-11-30T03:50:09.323Z,92.40
2017-11-30T03:52:37.596Z,92.00
2017-11-30T03:55:05.840Z,92.50
2017-11-30T03:57:34.090Z,92.60
2017-11-30T04:00:02.714Z,91.90
2017-11-30T04:02:30.958Z,92.20
2017-11-30T04:04:59.574Z,91.80
2017-11-30T04:07:28.625Z,92.00
2017-11-30T04:09:59.071Z,92.00
2017-11-30T04:12:27.315Z,92.50
2017-11-30T04:14:55.591Z,92.70
2017-11-30T04:17:23.834Z,92.60
2017-11-30T04:19:52.079Z,92.30
2017-11-30T04:22:20.731Z,92.40
2017-11-30T04:24:48.990Z,92.30
2017-11-30T04:27:17.232Z,92.20
2017-11-30T04:29:45.507Z,91.40
2017-11-30T04:32:14.519Z,91.60
2017-11-30T04:34:43.536Z,91.80
2017-11-30T04:37:12.235Z,91.80
2017-11-30T04:39:40.474Z,91.90
2017-11-30T04:42:08.719Z,92.10
2017-11-30T04:44:37.355Z,91.90
2017-11-30T04:47:05.603Z,91.60
2017-11-30T04:49:33.859Z,91.50
2017-11-30T04:52:02.128Z,91.70
2017-11-30T04:54:30.380Z,91.40
2017-11-30T04:56:58.627Z,91.80
2017-11-30T04:59:26.903Z,92.20
2017-11-30T05:01:55.157Z,92.20
2017-11-30T05:04:23.448Z,92.20
2017-11-30T05:06:53.086Z,92.30
2017-11-30T05:09:21.336Z,92.20
2017-11-30T05:11:49.579Z,91.50
2017-11-30T05:14:17.847Z,92.00
2017-11-30T05:16:46.096Z,91.90
2017-11-30T05:19:14.355Z,92.00
2017-11-30T05:21:42.623Z,92.10
2017-11-30T05:24:11.059Z,92.60
2017-11-30T05:26:39.320Z,92.40
2017-11-30T05:29:07.902Z,92.30
2017-11-30T05:31:36.147Z,92.40
2017-11-30T05:34:04.400Z,92.50
2017-11-30T05:36:32.756Z,92.80
2017-11-30T05:39:00.994Z,92.60
2017-11-30T05:41:29.231Z,92.80
2017-11-30T05:43:57.503Z,92.70
2017-11-30T05:46:26.526Z,92.70
2017-11-30T05:48:54.763Z,92.70
2017-11-30T05:51:23.316Z,92.60
2017-11-30T05:53:51.562Z,92.20
2017-11-30T05:56:19.806Z,92.20
2017-11-30T05:58:49.927Z,92.40
2017-11-30T06:01:18.948Z,92.50
2017-11-30T06:03:47.190Z,92.50
2017-11-30T06:06:15.475Z,92.60
2017-11-30T06:08:43.863Z,92.60
2017-11-30T06:11:12.892Z,92.70
2017-11-30T06:13:41.231Z,92.70
2017-11-30T06:16:10.249Z,93.20
2017-11-30T06:18:38.524Z,93.20
2017-11-30T06:21:06.800Z,93.50
2017-11-30T06:23:35.051Z,93.60
2017-11-30T06:26:04.075Z,92.40
2017-11-30T06:28:32.367Z,92.40
2017-11-30T06:31:00.617Z,92.60
2017-11-30T06:33:28.995Z,92.10
2017-11-30T06:35:57.440Z,92.20
2017-11-30T06:38:25.767Z,90.90
2017-11-30T06:40:56.040Z,90.70
2017-11-30T06:43:24.314Z,91.60
2017-11-30T06:45:52.561Z,91.60
2017-11-30T06:48:20.823Z,91.70
2017-11-30T06:50:49.091Z,91.50
2017-11-30T06:53:17.356Z,91.80
2017-11-30T06:55:46.378Z,91.90
2017-11-30T06:58:15.071Z,91.90
2017-11-30T07:00:43.348Z,91.40
2017-11-30T07:03:11.579Z,91.20
2017-11-30T07:05:40.758Z,90.70
2017-11-30T07:08:09.019Z,88.00
2017-11-30T07:10:37.551Z,86.70
2017-11-30T07:13:06.590Z,86.30
2017-11-30T07:15:34.842Z,86.10
2017-11-30T07:18:03.125Z,85.50
2017-11-30T07:20:32.062Z,84.90
2017-11-30T07:23:00.318Z,86.50
2017-11-30T07:25:28.559Z,86.50
2017-11-30T07:27:56.819Z,86.70
2017-11-30T07:30:25.827Z,85.10
2017-11-30T07:32:54.086Z,85.10
2017-11-30T07:35:22.419Z,86.00
2017-11-30T07:37:50.659Z,86.10
2017-11-30T07:40:18.923Z,87.50
2017-11-30T07:42:47.355Z,87.80
2017-11-30T07:45:15.591Z,87.40
2017-11-30T07:47:43.840Z,86.60
2017-11-30T07:50:12.877Z,85.80
2017-11-30T07:52:41.115Z,85.70
2017-11-30T07:55:09.358Z,87.40
2017-11-30T07:57:37.639Z,87.80
2017-11-30T08:00:05.908Z,88.40
2017-11-30T08:02:34.151Z,89.60
2017-11-30T08:05:02.848Z,90.40
2017-11-30T08:07:31.156Z,90.70
2017-11-30T08:09:59.404Z,91.00
2017-11-30T08:12:27.914Z,90.60
2017-11-30T08:14:56.164Z,90.10
2017-11-30T08:17:24.412Z,88.40
2017-11-30T08:19:52.680Z,87.00
2017-11-30T08:22:20.931Z,85.40
2017-11-30T08:24:49.224Z,84.50
2017-11-30T08:27:18.852Z,82.70
2017-11-30T08:29:47.095Z,82.50
2017-11-30T08:32:15.419Z,83.30
2017-11-30T08:34:43.681Z,83.10
2017-11-30T08:37:11.947Z,82.60
2017-11-30T08:39:40.208Z,82.90
2017-11-30T08:42:08.491Z,82.10
2017-11-30T08:44:37.506Z,81.00
2017-11-30T08:47:05.757Z,80.90
2017-11-30T08:49:34.304Z,80.60
2017-11-30T08:52:02.548Z,82.70
2017-11-30T08:54:30.791Z,84.40
2017-11-30T08:56:59.060Z,83.60
2017-11-30T08:59:27.334Z,82.20
2017-11-30T09:01:55.583Z,84.50
2017-11-30T09:04:23.847Z,85.80
2017-11-30T09:06:52.087Z,82.80
2017-11-30T09:09:21.103Z,80.10
2017-11-30T09:11:49.437Z,80.10
2017-11-30T09:14:17.936Z,79.60
2017-11-30T09:16:46.179Z,80.90
2017-11-30T09:19:14.448Z,81.50
2017-11-30T09:21:42.701Z,78.20
2017-11-30T09:24:10.954Z,76.30
2017-11-30T09:26:39.983Z,77.30
2017-11-30T09:29:08.223Z,77.30
2017-11-30T09:31:36.463Z,77.10
2017-11-30T09:34:04.799Z,77.20
2017-11-30T09:36:33.043Z,78.40
2017-11-30T09:39:01.288Z,78.50
2017-11-30T09:41:29.542Z,79.30
2017-11-30T09:43:57.808Z,77.60
2017-11-30T09:46:26.052Z,79.10
2017-11-30T09:48:55.083Z,77.80
2017-11-30T09:51:23.361Z,77.90
2017-11-30T09:53:51.603Z,80.20
2017-11-30T09:56:20.292Z,79.60
2017-11-30T09:58:48.535Z,69.20
2017-11-30T10:01:16.780Z,67.60
2017-11-30T10:03:45.044Z,68.00
2017-11-30T10:06:13.288Z,70.60
2017-11-30T10:08:41.542Z,71.60
2017-11-30T10:11:09.815Z,71.10
2017-11-30T10:13:38.059Z,71.90
2017-11-30T10:16:06.771Z,72.20
2017-11-30T10:18:35.858Z,75.70
2017-11-30T10:21:04.096Z,75.00
2017-11-30T10:23:32.340Z,77.10
2017-11-30T10:26:01.383Z,77.40
2017-11-30T10:28:29.637Z,77.00
2017-11-30T10:30:57.877Z,77.00
2017-11-30T10:33:26.151Z,76.90
2017-11-30T10:35:54.524Z,76.30
2017-11-30T10:38:22.769Z,77.00
2017-11-30T10:40:51.350Z,75.00
2017-11-30T10:43:19.595Z,73.80
2017-11-30T10:45:47.840Z,75.70
2017-11-30T10:48:16.100Z,77.40
2017-11-30T10:50:44.679Z,77.40
2017-11-30T10:53:12.919Z,76.70
2017-11-30T10:55:41.943Z,67.60
2017-11-30T10:58:10.184Z,67.50
2017-11-30T11:00:38.420Z,65.70
2017-11-30T11:03:07.076Z,65.90
2017-11-30T11:05:35.321Z,66.00
2017-11-30T11:08:03.559Z,67.30
2017-11-30T11:10:31.817Z,69.00
2017-11-30T11:13:00.053Z,71.30
2017-11-30T11:15:28.286Z,72.80
2017-11-30T11:17:56.976Z,74.20
2017-11-30T11:20:25.210Z,74.60
2017-11-30T11:22:53.454Z,74.60
2017-11-30T11:25:22.691Z,77.50
2017-11-30T11:27:50.932Z,77.30
2017-11-30T11:30:19.943Z,75.00
2017-11-30T11:32:48.225Z,74.90
2017-11-30T11:35:16.467Z,75.10
2017-11-30T11:37:44.715Z,75.20
2017-11-30T11:40:12.998Z,73.50
2017-11-30T11:42:41.220Z,74.40
2017-11-30T11:45:09.524Z,72.60
2017-11-30T11:47:37.840Z,73.90
2017-11-30T11:50:06.075Z,72.90
2017-11-30T11:52:34.311Z,69.00
2017-11-30T11:55:03.352Z,70.90
2017-11-30T11:57:31.588Z,70.90
2017-11-30T11:59:59.818Z,69.80
2017-11-30T12:02:28.080Z,71.10
2017-11-30T12:04:56.324Z,68.30
2017-11-30T12:07:25.511Z,67.90
2017-11-30T12:09:54.711Z,67.50
2017-11-30T12:12:22.947Z,67.50
2017-11-30T12:14:51.180Z,68.10
2017-11-30T12:17:19.494Z,70.20
2017-11-30T12:19:48.185Z,69.70
2017-11-30T12:22:18.332Z,66.10
2017-11-30T12:24:46.595Z,67.80
2017-11-30T12:27:14.846Z,66.20
2017-11-30T12:29:43.079Z,64.30
2017-11-30T12:32:12.474Z,63.20
2017-11-30T12:34:40.725Z,63.20
2017-11-30T12:37:08.989Z,63.90
2017-11-30T12:39:37.227Z,65.40
2017-11-30T12:42:05.468Z,64.00
2017-11-30T12:44:33.709Z,64.00
2017-11-30T12:47:01.971Z,65.90
2017-11-30T12:49:30.229Z,67.10
2017-11-30T12:51:58.480Z,65.90
2017-11-30T12:54:27.844Z,64.60
2017-11-30T12:56:56.124Z,64.60
2017-11-30T12:59:24.399Z,65.30
2017-11-30T13:01:52.650Z,63.30
2017-11-30T13:04:20.954Z,63.70
2017-11-30T13:06:49.207Z,66.80
2017-11-30T13:09:17.478Z,67.30
2017-11-30T13:11:45.728Z,66.70
2017-11-30T13:14:13.965Z,67.70
2017-11-30T13:16:42.309Z,67.20
2017-11-30T13:19:10.558Z,65.90
2017-11-30T13:21:39.213Z,64.90
2017-11-30T13:24:07.482Z,66.60
2017-11-30T13:26:35.757Z,66.70
2017-11-30T13:29:04.006Z,65.10
2017-11-30T13:31:32.275Z,66.80
2017-11-30T13:34:00.513Z,65.80
2017-11-30T13:36:28.753Z,66.40
2017-11-30T13:38:57.161Z,66.50
2017-11-30T13:41:25.462Z,66.80
2017-11-30T13:43:53.706Z,66.50
2017-11-30T13:46:21.974Z,67.20
2017-11-30T13:48:50.226Z,67.70
2017-11-30T13:51:18.474Z,68.00
2017-11-30T13:53:46.746Z,67.30
2017-11-30T13:56:15.762Z,67.80
2017-11-30T13:58:44.010Z,67.80
2017-11-30T14:01:12.659Z,67.00
2017-11-30T14:03:40.931Z,66.80
2017-11-30T14:06:09.374Z,68.60
2017-11-30T14:08:38.856Z,69.60
2017-11-30T14:11:07.920Z,67.40
2017-11-30T14:13:36.307Z,67.10
2017-11-30T14:16:04.880Z,67.70
2017-11-30T14:18:34.193Z,67.10
2017-11-30T14:21:02.641Z,68.00
2017-11-30T14:23:31.013Z,68.90
2017-11-30T14:26:00.250Z,69.70
2017-11-30T14:28:28.550Z,69.40
2017-11-30T14:30:57.032Z,70.80
2017-11-30T14:33:26.053Z,70.70
2017-11-30T14:35:54.308Z,70.60
2017-11-30T14:38:22.811Z,71.40
2017-11-30T14:40:51.050Z,72.80
2017-11-30T14:43:19.470Z,72.00
2017-11-30T14:45:47.980Z,71.40
2017-11-30T14:48:16.223Z,71.60
2017-11-30T14:50:44.476Z,73.20
2017-11-30T14:53:13.505Z,73.00
2017-11-30T14:55:42.945Z,73.00
2017-11-30T14:58:11.197Z,72.50
2017-11-30T15:00:39.467Z,73.50
2017-11-30T15:03:07.777Z,72.70
2017-11-30T15:05:36.169Z,77.00
2017-11-30T15:08:04.606Z,75.10
2017-11-30T15:10:32.882Z,76.10
2017-11-30T15:13:01.344Z,76.00
2017-11-30T15:15:29.631Z,80.90
2017-11-30T15:17:58.087Z,78.40
2017-11-30T15:20:27.406Z,80.00
2017-11-30T15:22:55.938Z,79.90
2017-11-30T15:25:24.273Z,83.50
2017-11-30T15:27:52.540Z,84.00
2017-11-30T15:30:21.643Z,85.20
2017-11-30T15:32:51.490Z,85.20
2017-11-30T15:35:19.731Z,82.50
2017-11-30T15:37:48.191Z,85.30
2017-11-30T15:40:17.507Z,83.90
2017-11-30T15:42:45.769Z,83.90
2017-11-30T15:45:14.242Z,83.60
2017-11-30T15:47:43.408Z,82.20
2017-11-30T15:50:11.638Z,82.00
2017-11-30T15:52:40.102Z,87.90
2017-11-30T15:55:08.543Z,85.70
2017-11-30T15:57:36.860Z,87.80
2017-11-30T16:00:05.141Z,86.80
2017-11-30T16:02:34.217Z,87.50
2017-11-30T16:05:02.469Z,87.40
2017-11-30T16:07:31.241Z,85.70
2017-11-30T16:09:59.618Z,86.00
2017-11-30T16:12:28.017Z,85.40
2017-11-30T16:14:57.416Z,85.80
2017-11-30T16:17:29.962Z,86.40
2017-11-30T16:19:58.984Z,86.40
2017-11-30T16:22:27.253Z,86.20
2017-11-30T16:24:55.504Z,86.20
2017-11-30T16:27:23.925Z,87.50
2017-11-30T16:29:52.174Z,86.00
2017-11-30T16:32:20.888Z,87.10
2017-11-30T16:34:49.589Z,86.90
2017-11-30T16:37:17.922Z,85.50
2017-11-30T16:39:47.371Z,86.40
2017-11-30T16:42:15.634Z,86.40
2017-11-30T16:44:43.965Z,83.30
2017-11-30T16:47:13.217Z,82.80
2017-11-30T16:49:41.489Z,82.80
2017-11-30T16:52:10.146Z,83.20
2017-11-30T16:54:38.666Z,84.70
2017-11-30T16:57:07.496Z,85.10
2017-11-30T16:59:35.925Z,83.90
2017-11-30T17:02:04.154Z,85.60
2017-11-30T17:04:34.511Z,84.10
2017-11-30T17:07:03.148Z,84.90
2017-11-30T17:09:31.712Z,84.00
2017-11-30T17:12:00.260Z,83.00
2017-11-30T17:14:28.573Z,83.40
2017-11-30T17:16:56.846Z,85.90
2017-11-30T17:19:25.332Z,85.40
2017-11-30T17:21:54.101Z,85.40
2017-11-30T17:24:22.638Z,85.30
2017-11-30T17:26:51.675Z,84.80
2017-11-30T17:29:19.976Z,84.80
2017-11-30T17:31:48.374Z,86.70
2017-11-30T17:34:17.426Z,86.80
2017-11-30T17:36:46.633Z,86.70
2017-11-30T17:39:14.899Z,85.70
2017-11-30T17:41:44.443Z,85.30
2017-11-30T17:44:12.762Z,85.30
2017-11-30T17:46:41.998Z,86.20
2017-11-30T17:49:10.724Z,85.60
2017-11-30T17:51:39.749Z,86.50
2017-11-30T17:54:10.210Z,86.40
2017-11-30T17:56:38.630Z,87.40
2017-11-30T17:59:07.089Z,87.30
2017-11-30T18:01:38.454Z,86.30
2017-11-30T18:04:09.646Z,86.50
2017-11-30T18:06:49.671Z,86.20
2017-11-30T18:09:37.812Z,86.30
2017-11-30T18:12:06.657Z,86.40
2017-11-30T18:14:35.355Z,86.50
2017-11-30T18:17:03.863Z,87.10
2017-11-30T18:19:32.509Z,86.90
2017-11-30T18:22:01.801Z,87.40
2017-11-30T18:24:31.619Z,87.90
2017-11-30T18:27:00.070Z,87.90
2017-11-30T18:29:30.200Z,87.80
2017-11-30T18:31:58.723Z,88.10
2017-11-30T18:34:27.493Z,86.60
2017-11-30T18:36:55.975Z,87.10
2017-11-30T18:39:25.313Z,86.40
2017-11-30T18:41:54.587Z,88.10
2017-11-30T18:44:22.976Z,88.10
2017-11-30T18:46:51.440Z,88.60
2017-11-30T18:49:20.654Z,87.30
2017-11-30T18:51:50.865Z,87.90
2017-11-30T18:54:19.270Z,87.90
2017-11-30T18:56:48.295Z,87.90
2017-11-30T18:59:16.556Z,87.80
2017-11-30T19:01:45.018Z,88.70
2017-11-30T19:04:15.246Z,88.60
2017-11-30T19:06:44.514Z,89.60
2017-11-30T19:09:13.101Z,89.60
2017-11-30T19:11:42.562Z,89.50
2017-11-30T19:14:13.090Z,90.00
2017-11-30T19:16:42.361Z,89.30
2017-11-30T19:19:11.373Z,88.50
2017-11-30T19:21:40.631Z,88.50
2017-11-30T19:24:09.034Z,88.90
2017-11-30T19:26:38.059Z,89.20
2017-11-30T19:29:08.570Z,89.20
2017-11-30T19:31:36.994Z,89.40
2017-11-30T19:34:07.659Z,89.80
2017-11-30T19:36:36.118Z,90.10
2017-11-30T19:39:04.400Z,90.00
2017-11-30T19:41:33.800Z,90.00
2017-11-30T19:44:03.098Z,90.20
2017-11-30T19:46:31.885Z,90.10
2017-11-30T19:49:00.165Z,89.70
2017-11-30T19:51:28.942Z,90.10
2017-11-30T19:53:57.410Z,90.10
2017-11-30T19:56:26.865Z,90.00
2017-11-30T19:58:56.026Z,90.20
2017-11-30T20:01:24.298Z,90.20
2017-11-30T20:03:53.516Z,90.50
2017-11-30T20:06:21.936Z,90.60
2017-11-30T20:08:50.976Z,90.00
2017-11-30T20:11:21.610Z,89.90
2017-11-30T20:13:49.856Z,90.00
2017-11-30T20:16:18.329Z,89.70
2017-11-30T20:18:46.586Z,90.20
2017-11-30T20:21:15.856Z,90.40
2017-11-30T20:23:44.576Z,90.10
2017-11-30T20:26:14.774Z,89.60
2017-11-30T20:28:43.154Z,89.60
2017-11-30T20:31:11.595Z,90.00
2017-11-30T20:33:39.830Z,90.30
2017-11-30T20:36:08.123Z,90.00
2017-11-30T20:38:38.249Z,90.20
2017-11-30T20:41:06.538Z,90.20
2017-11-30T20:43:34.913Z,90.10
2017-11-30T20:46:03.528Z,90.20
2017-11-30T20:48:31.809Z,90.10
2017-11-30T20:51:02.238Z,90.40
2017-11-30T20:53:34.714Z,90.40
2017-11-30T20:56:02.960Z,90.50
2017-11-30T20:58:31.418Z,90.50
2017-11-30T21:01:01.116Z,90.60
2017-11-30T21:03:29.470Z,90.60
2017-11-30T21:05:57.799Z,90.30
2017-11-30T21:08:26.105Z,90.20
2017-11-30T21:10:54.399Z,90.90
2017-11-30T21:13:23.794Z,91.00
2017-11-30T21:15:52.303Z,91.10
2017-11-30T21:18:20.863Z,90.80
2017-11-30T21:20:49.315Z,90.50
2017-11-30T21:23:18.641Z,90.40
2017-11-30T21:25:46.946Z,90.70
2017-11-30T21:28:16.067Z,90.70
2017-11-30T21:30:44.318Z,90.60
2017-11-30T21:33:13.338Z,90.70
2017-11-30T21:35:41.673Z,90.70
2017-11-30T21:38:10.139Z,90.80
2017-11-30T21:40:38.604Z,90.50
2017-11-30T21:43:06.837Z,90.90
2017-11-30T21:45:36.177Z,90.60
2017-11-30T21:48:04.430Z,90.60
2017-11-30T21:50:32.681Z,90.60
2017-11-30T21:53:01.719Z,91.10
2017-11-30T21:55:29.960Z,90.80
2017-11-30T21:57:58.979Z,91.20
2017-11-30T22:00:27.334Z,91.20
2017-11-30T22:02:56.346Z,91.90
2017-11-30T22:05:24.589Z,91.90
2017-11-30T22:07:53.215Z,92.10
2017-11-30T22:10:21.466Z,92.40
2017-11-30T22:12:50.484Z,91.20
2017-11-30T22:15:18.755Z,91.30
2017-11-30T22:17:46.997Z,91.50
2017-11-30T22:20:16.013Z,91.60
2017-11-30T22:22:44.291Z,91.60
2017-11-30T22:25:13.327Z,91.30
2017-11-30T22:27:41.565Z,91.30
2017-11-30T22:30:09.881Z,91.30
2017-11-30T22:32:38.421Z,91.30
2017-11-30T22:35:06.662Z,91.80
2017-11-30T22:37:35.166Z,91.60
2017-11-30T22:40:04.190Z,90.90
2017-11-30T22:42:32.518Z,90.80
2017-11-30T22:45:00.786Z,90.80
2017-11-30T22:47:29.042Z,89.30
2017-11-30T22:49:57.293Z,90.10
2017-11-30T22:52:25.922Z,90.40
2017-11-30T22:54:54.194Z,90.60
2017-11-30T22:57:22.434Z,90.80
2017-11-30T22:59:50.826Z,90.70
2017-11-30T23:02:19.061Z,90.30
2017-11-30T23:04:48.069Z,88.00
2017-11-30T23:07:16.343Z,88.00
2017-11-30T23:09:45.346Z,89.40
2017-11-30T23:12:13.602Z,89.40
2017-11-30T23:14:42.158Z,90.30
2017-11-30T23:17:10.403Z,90.90
2017-11-30T23:19:38.646Z,91.10
2017-11-30T23:22:06.913Z,91.30
2017-11-30T23:24:35.930Z,90.20
2017-11-30T23:27:04.174Z,90.10
2017-11-30T23:29:32.438Z,89.10
2017-11-30T23:32:00.683Z,88.00
2017-11-30T23:34:29.113Z,88.80
2017-11-30T23:36:58.286Z,89.10
2017-11-30T23:39:26.538Z,89.00
2017-11-30T23:41:54.791Z,89.10
2017-11-30T23:44:23.057Z,89.80
2017-11-30T23:46:51.306Z,88.90
2017-11-30T23:49:19.557Z,89.10
2017-11-30T23:51:47.818Z,90.10
2017-11-30T23:54:16.070Z,90.00
2017-11-30T23:56:44.534Z,89.80
2017-11-30T23:59:13.721Z,90.50
